createdAt,value
2018-10-18T00:00:44.932Z,100576.66
2018-10-18T00:03:13.411Z,100571.67
2018-10-18T00:05:41.820Z,100581.16
2018-10-18T00:08:10.381Z,100570.25
2018-10-18T00:10:38.659Z,100573.95
2018-10-18T00:13:07.059Z,100574.73
2018-10-18T00:15:35.445Z,100583.40
2018-10-18T00:18:04.313Z,100576.00
2018-10-18T00:20:33.958Z,100575.66
2018-10-18T00:23:02.406Z,100573.20
2018-10-18T00:25:30.797Z,100578.11
2018-10-18T00:27:59.233Z,100572.91
2018-10-18T00:30:27.638Z,100565.86
2018-10-18T00:32:56.185Z,100572.63
2018-10-18T00:35:24.628Z,100565.33
2018-10-18T00:37:53.075Z,100572.13
2018-10-18T00:40:21.477Z,100568.26
2018-10-18T00:42:50.102Z,100566.87
2018-10-18T00:45:18.659Z,100567.66
2018-10-18T00:47:47.205Z,100567.11
2018-10-18T00:50:15.694Z,100564.88
2018-10-18T00:52:44.036Z,100571.42
2018-10-18T00:55:12.603Z,100567.05
2018-10-18T00:57:41.893Z,100564.55
2018-10-18T01:00:11.468Z,100564.00
2018-10-18T01:02:39.785Z,100565.63
2018-10-18T01:05:08.302Z,100568.34
2018-10-18T01:07:36.914Z,100566.42
2018-10-18T01:10:05.408Z,100576.73
2018-10-18T01:12:33.867Z,100573.72
2018-10-18T01:15:02.441Z,100576.67
2018-10-18T01:17:30.882Z,100581.84
2018-10-18T01:19:59.310Z,100576.64
2018-10-18T01:22:28.643Z,100574.48
2018-10-18T01:24:57.064Z,100577.70
2018-10-18T01:27:25.534Z,100582.28
2018-10-18T01:29:53.961Z,100577.37
2018-10-18T01:32:22.357Z,100582.74
2018-10-18T01:34:50.828Z,100581.95
2018-10-18T01:37:19.254Z,100582.28
2018-10-18T01:39:47.840Z,100584.20
2018-10-18T01:42:16.331Z,100584.87
2018-10-18T01:44:52.318Z,100584.63
2018-10-18T01:47:20.771Z,100588.52
2018-10-18T01:49:49.294Z,100591.86
2018-10-18T01:52:17.681Z,100590.50
2018-10-18T01:54:46.286Z,100590.59
2018-10-18T01:57:14.779Z,100587.10
2018-10-18T01:59:43.222Z,100591.51
2018-10-18T02:02:11.677Z,100593.48
2018-10-18T02:04:40.141Z,100599.79
2018-10-18T02:07:08.591Z,100596.56
2018-10-18T02:09:37.022Z,100596.32
2018-10-18T02:12:06.405Z,100599.91
2018-10-18T02:14:34.725Z,100595.31
2018-10-18T02:17:03.153Z,100593.41
2018-10-18T02:19:31.670Z,100595.90
2018-10-18T02:22:00.078Z,100606.28
2018-10-18T02:24:28.518Z,100606.86
2018-10-18T02:26:56.914Z,100610.14
2018-10-18T02:29:25.373Z,100614.00
2018-10-18T02:31:53.822Z,100611.83
2018-10-18T02:34:22.213Z,100617.28
2018-10-18T02:36:50.651Z,100614.00
2018-10-18T02:39:19.106Z,100610.78
2018-10-18T02:41:47.543Z,100607.50
2018-10-18T02:44:16.073Z,100609.15
2018-10-18T02:46:44.474Z,100613.80
2018-10-18T02:49:12.901Z,100611.61
2018-10-18T02:51:41.325Z,100617.34
2018-10-18T02:54:09.879Z,100611.34
2018-10-18T02:56:38.221Z,100617.67
2018-10-18T02:59:06.718Z,100619.27
2018-10-18T03:01:35.158Z,100620.41
2018-10-18T03:04:03.599Z,100626.42
2018-10-18T03:06:32.041Z,100626.71
2018-10-18T03:09:00.573Z,100629.44
2018-10-18T03:11:29.022Z,100628.05
2018-10-18T03:13:57.754Z,100628.90
2018-10-18T03:16:26.162Z,100629.97
2018-10-18T03:18:54.669Z,100638.14
2018-10-18T03:21:23.075Z,100638.14
2018-10-18T03:23:51.532Z,100643.38
2018-10-18T03:26:19.948Z,100646.64
2018-10-18T03:28:48.403Z,100639.05
2018-10-18T03:31:16.923Z,100640.67
2018-10-18T03:33:45.310Z,100642.33
2018-10-18T03:36:13.829Z,100641.77
2018-10-18T03:38:42.175Z,100645.05
2018-10-18T03:41:10.616Z,100641.77
2018-10-18T03:43:39.045Z,100649.09
2018-10-18T03:46:07.469Z,100644.49
2018-10-18T03:48:35.942Z,100650.50
2018-10-18T03:51:04.367Z,100649.65
2018-10-18T03:53:32.821Z,100655.15
2018-10-18T03:56:01.277Z,100643.16
2018-10-18T03:58:29.677Z,100656.56
2018-10-18T04:00:58.083Z,100651.39
2018-10-18T04:03:26.589Z,100650.86
2018-10-18T04:05:55.140Z,100650.84
2018-10-18T04:08:23.542Z,100657.87
2018-10-18T04:10:51.974Z,100654.64
2018-10-18T04:13:20.452Z,100656.91
2018-10-18T04:15:48.869Z,100652.58
2018-10-18T04:18:17.266Z,100653.91
2018-10-18T04:20:45.690Z,100657.45
2018-10-18T04:23:18.242Z,100658.56
2018-10-18T04:25:46.681Z,100660.25
2018-10-18T04:28:15.046Z,100652.98
2018-10-18T04:30:43.449Z,100657.31
2018-10-18T04:33:11.822Z,100660.89
2018-10-18T04:35:40.261Z,100660.87
2018-10-18T04:38:08.682Z,100666.04
2018-10-18T04:40:37.107Z,100666.08
2018-10-18T04:43:05.906Z,100666.07
2018-10-18T04:45:34.337Z,100671.52
2018-10-18T04:48:02.909Z,100673.45
2018-10-18T04:50:31.204Z,100677.00
2018-10-18T04:52:59.575Z,100677.84
2018-10-18T04:55:28.043Z,100678.42
2018-10-18T04:57:56.444Z,100685.52
2018-10-18T05:00:25.220Z,100690.17
2018-10-18T05:02:53.666Z,100684.71
2018-10-18T05:06:02.243Z,100685.52
2018-10-18T05:08:30.906Z,100690.10
2018-10-18T05:10:59.329Z,100686.30
2018-10-18T05:13:27.869Z,100691.42
2018-10-18T05:15:56.268Z,100699.62
2018-10-18T05:18:24.994Z,100698.00
2018-10-18T05:20:53.398Z,100694.42
2018-10-18T05:23:21.833Z,100695.74
2018-10-18T05:25:50.861Z,100699.28
2018-10-18T05:28:19.462Z,100700.91
2018-10-18T05:30:47.917Z,100702.56
2018-10-18T05:33:16.301Z,100709.07
2018-10-18T05:35:44.757Z,100711.28
2018-10-18T05:38:13.150Z,100711.55
2018-10-18T05:40:41.545Z,100718.08
2018-10-18T05:43:10.029Z,100714.52
2018-10-18T05:45:38.409Z,100717.76
2018-10-18T05:48:07.402Z,100717.52
2018-10-18T05:50:35.828Z,100721.85
2018-10-18T05:53:04.303Z,100728.91
2018-10-18T05:55:32.710Z,100728.94
2018-10-18T05:58:01.080Z,100730.83
2018-10-18T06:00:29.515Z,100727.55
2018-10-18T06:02:57.938Z,100735.73
2018-10-18T06:05:26.357Z,100731.66
2018-10-18T06:07:54.749Z,100741.73
2018-10-18T06:10:34.521Z,100742.30
2018-10-18T06:13:02.890Z,100749.12
2018-10-18T06:15:31.254Z,100749.16
2018-10-18T06:17:59.664Z,100751.09
2018-10-18T06:20:28.107Z,100750.00
2018-10-18T06:22:57.724Z,100750.23
2018-10-18T06:25:25.981Z,100759.24
2018-10-18T06:27:54.389Z,100757.88
2018-10-18T06:30:22.769Z,100758.44
2018-10-18T06:32:51.204Z,100755.73
2018-10-18T06:35:19.633Z,100757.12
2018-10-18T06:37:48.157Z,100753.84
2018-10-18T06:40:17.820Z,100757.17
2018-10-18T06:42:46.248Z,100766.17
2018-10-18T06:45:16.059Z,100760.16
2018-10-18T06:47:44.844Z,100762.67
2018-10-18T06:50:20.548Z,100752.86
2018-10-18T06:52:49.078Z,100755.07
2018-10-18T06:55:17.605Z,100748.23
2018-10-18T06:58:18.409Z,100758.04
2018-10-18T07:00:46.829Z,100758.58
2018-10-18T07:03:15.322Z,100759.36
2018-10-18T07:05:43.717Z,100756.39
2018-10-18T07:08:12.180Z,100756.39
2018-10-18T07:10:40.609Z,100756.09
2018-10-18T07:13:09.046Z,100752.81
2018-10-18T07:15:37.589Z,100767.30
2018-10-18T07:18:06.195Z,100759.92
2018-10-18T07:20:34.529Z,100767.33
2018-10-18T07:23:02.966Z,100770.61
2018-10-18T07:25:31.326Z,100766.83
2018-10-18T07:27:59.774Z,100769.58
2018-10-18T07:30:28.177Z,100776.15
2018-10-18T07:32:57.253Z,100780.27
2018-10-18T07:35:25.880Z,100787.97
2018-10-18T07:37:54.347Z,100787.78
2018-10-18T07:40:22.818Z,100791.09
2018-10-18T07:42:51.336Z,100796.06
2018-10-18T07:45:19.719Z,100793.05
2018-10-18T07:47:49.003Z,100794.42
2018-10-18T07:55:53.826Z,100799.67
2018-10-18T07:58:22.379Z,100794.17
2018-10-18T08:00:51.033Z,100797.47
2018-10-18T08:03:19.444Z,100803.37
2018-10-18T08:05:47.818Z,100804.05
2018-10-18T08:08:16.228Z,100799.17
2018-10-18T08:10:44.614Z,100801.68
2018-10-18T08:13:13.305Z,100806.07
2018-10-18T08:15:41.613Z,100806.20
2018-10-18T08:18:10.250Z,100803.75
2018-10-18T08:20:38.890Z,100802.70
2018-10-18T08:23:07.494Z,100796.42
2018-10-18T08:25:36.122Z,100814.00
2018-10-18T08:28:04.577Z,100813.15
2018-10-18T08:30:33.001Z,100812.69
2018-10-18T08:33:01.458Z,100810.21
2018-10-18T08:35:29.862Z,100807.18
2018-10-18T08:37:58.668Z,100806.34
2018-10-18T08:40:27.033Z,100805.59
2018-10-18T08:42:55.486Z,100806.42
2018-10-18T08:45:23.977Z,100811.36
2018-10-18T08:47:52.478Z,100807.23
2018-10-18T08:50:20.938Z,100801.79
2018-10-18T08:52:55.408Z,100806.98
2018-10-18T08:55:24.678Z,100807.52
2018-10-18T08:57:53.511Z,100807.81
2018-10-18T09:00:22.674Z,100814.08
2018-10-18T09:02:51.255Z,100818.47
2018-10-18T09:05:21.925Z,100820.67
2018-10-18T09:07:52.030Z,100829.67
2018-10-18T09:10:22.299Z,100824.74
2018-10-18T09:12:50.728Z,100829.39
2018-10-18T09:15:19.890Z,100820.95
2018-10-18T09:17:49.304Z,100828.30
2018-10-18T09:20:20.102Z,100821.50
2018-10-18T09:22:50.778Z,100830.22
2018-10-18T09:25:19.351Z,100828.88
2018-10-18T09:27:47.905Z,100828.59
2018-10-18T09:30:17.321Z,100837.89
2018-10-18T09:32:46.845Z,100842.55
2018-10-18T09:35:15.948Z,100845.29
2018-10-18T09:37:44.945Z,100837.34
2018-10-18T09:40:13.490Z,100838.44
2018-10-18T09:42:41.905Z,100843.64
2018-10-18T09:45:12.362Z,100847.47
2018-10-18T09:47:44.457Z,100843.36
2018-10-18T09:50:15.778Z,100843.09
2018-10-18T09:52:46.825Z,100839.27
2018-10-18T09:55:15.974Z,100845.28
2018-10-18T09:57:44.283Z,100841.47
2018-10-18T10:00:18.050Z,100840.37
2018-10-18T10:02:49.522Z,100845.03
2018-10-18T10:05:18.146Z,100845.58
2018-10-18T10:07:46.816Z,100848.85
2018-10-18T10:10:15.214Z,100848.86
2018-10-18T10:12:50.209Z,100846.37
2018-10-18T10:15:18.640Z,100853.50
2018-10-18T10:17:47.204Z,100852.92
2018-10-18T10:20:15.551Z,100851.31
2018-10-18T10:22:43.994Z,100845.00
2018-10-18T10:25:12.510Z,100849.94
2018-10-18T10:27:40.858Z,100855.98
2018-10-18T10:30:09.754Z,100852.16
2018-10-18T10:32:38.166Z,100858.73
2018-10-18T10:35:08.096Z,100856.53
2018-10-18T10:37:36.589Z,100854.88
2018-10-18T10:40:05.997Z,100852.68
2018-10-18T10:42:34.382Z,100853.82
2018-10-18T10:45:02.898Z,100854.62
2018-10-18T10:47:38.425Z,100850.75
2018-10-18T10:50:07.416Z,100851.58
2018-10-18T10:52:36.298Z,100853.25
2018-10-18T10:55:05.015Z,100851.33
2018-10-18T10:57:35.453Z,100853.78
2018-10-18T11:00:04.052Z,100849.39
2018-10-18T11:02:32.442Z,100849.69
2018-10-18T11:05:00.842Z,100849.38
2018-10-18T11:07:29.406Z,100848.05
2018-10-18T11:09:58.028Z,100845.83
2018-10-18T11:12:26.454Z,100843.66
2018-10-18T11:14:54.852Z,100847.20
2018-10-18T11:17:23.250Z,100840.88
2018-10-18T11:19:51.743Z,100849.06
2018-10-18T11:22:20.137Z,100843.33
2018-10-18T11:24:48.639Z,100850.77
2018-10-18T11:27:16.990Z,100847.45
2018-10-18T11:29:45.397Z,100841.96
2018-10-18T11:32:17.271Z,100845.18
2018-10-18T11:34:45.628Z,100844.66
2018-10-18T11:37:14.333Z,100846.25
2018-10-18T11:39:42.765Z,100845.70
2018-10-18T11:42:11.255Z,100842.67
2018-10-18T11:44:41.797Z,100839.32
2018-10-18T11:47:12.424Z,100839.86
2018-10-18T11:49:41.483Z,100831.61
2018-10-18T11:52:09.895Z,100827.52
2018-10-18T11:54:38.309Z,100827.19
2018-10-18T11:57:06.735Z,100831.17
2018-10-18T11:59:35.166Z,100833.58
2018-10-18T12:02:03.790Z,100831.62
2018-10-18T12:04:32.178Z,100828.59
2018-10-18T12:07:00.577Z,100830.85
2018-10-18T12:09:28.990Z,100832.58
2018-10-18T12:11:57.385Z,100832.23
2018-10-18T12:14:25.849Z,100833.47
2018-10-18T12:16:54.292Z,100838.27
2018-10-18T12:19:22.721Z,100831.38
2018-10-18T12:21:56.702Z,100834.34
2018-10-18T12:24:25.153Z,100834.48
2018-10-18T12:26:53.630Z,100833.61
2018-10-18T12:29:22.051Z,100829.66
2018-10-18T12:31:51.919Z,100831.09
2018-10-18T12:34:20.362Z,100834.16
2018-10-18T12:36:48.776Z,100825.98
2018-10-18T12:39:17.230Z,100836.31
2018-10-18T12:41:45.766Z,100823.71
2018-10-18T12:44:14.248Z,100825.36
2018-10-18T12:46:43.056Z,100825.06
2018-10-18T12:49:12.467Z,100820.14
2018-10-18T12:51:40.881Z,100822.84
2018-10-18T12:54:09.623Z,100820.92
2018-10-18T12:56:38.076Z,100820.11
2018-10-18T12:59:06.513Z,100823.98
2018-10-18T13:01:34.933Z,100823.19
2018-10-18T13:04:03.421Z,100824.33
2018-10-18T13:06:31.858Z,100819.34
2018-10-18T13:09:00.263Z,100813.14
2018-10-18T13:11:28.686Z,100817.12
2018-10-18T13:13:57.114Z,100817.13
2018-10-18T13:16:25.561Z,100816.89
2018-10-18T13:18:54.011Z,100816.18
2018-10-18T13:21:22.430Z,100807.77
2018-10-18T13:23:50.907Z,100811.00
2018-10-18T13:26:19.443Z,100804.55
2018-10-18T13:28:47.829Z,100806.45
2018-10-18T13:31:16.525Z,100803.69
2018-10-18T13:33:45.101Z,100807.47
2018-10-18T13:36:13.733Z,100805.33
2018-10-18T13:38:42.201Z,100807.02
2018-10-18T13:41:10.692Z,100806.00
2018-10-18T13:43:39.144Z,100811.55
2018-10-18T13:46:07.615Z,100814.14
2018-10-18T13:48:36.026Z,100808.28
2018-10-18T13:51:05.334Z,100809.84
2018-10-18T13:53:38.533Z,100820.63
2018-10-18T13:56:07.104Z,100817.89
2018-10-18T13:58:35.554Z,100812.17
2018-10-18T14:01:04.001Z,100807.27
2018-10-18T14:03:32.415Z,100811.03
2018-10-18T14:06:00.909Z,100807.05
2018-10-18T14:08:29.490Z,100811.27
2018-10-18T14:10:57.793Z,100806.31
2018-10-18T14:13:26.346Z,100804.70
2018-10-18T14:15:54.839Z,100803.57
2018-10-18T14:18:23.357Z,100803.05
2018-10-18T14:20:51.905Z,100811.27
2018-10-18T14:23:20.489Z,100808.23
2018-10-18T14:25:48.818Z,100809.41
2018-10-18T14:28:17.233Z,100804.73
2018-10-18T14:30:45.699Z,100801.44
2018-10-18T14:33:14.086Z,100805.48
2018-10-18T14:35:42.514Z,100800.30
2018-10-18T14:38:11.013Z,100801.39
2018-10-18T14:40:39.400Z,100799.22
2018-10-18T14:43:07.800Z,100802.22
2018-10-18T14:45:37.249Z,100802.81
2018-10-18T14:48:06.701Z,100800.45
2018-10-18T14:50:35.308Z,100797.98
2018-10-18T14:53:03.583Z,100795.19
2018-10-18T14:55:32.266Z,100802.27
2018-10-18T14:58:00.723Z,100794.57
2018-10-18T15:00:29.144Z,100794.24
2018-10-18T15:02:58.307Z,100794.57
2018-10-18T15:05:26.691Z,100792.87
2018-10-18T15:07:55.122Z,100795.73
2018-10-18T15:10:23.585Z,100795.25
2018-10-18T15:12:52.645Z,100799.64
2018-10-18T15:15:21.030Z,100794.84
2018-10-18T15:17:50.038Z,100802.08
2018-10-18T15:20:18.486Z,100798.03
2018-10-18T15:22:46.946Z,100789.83
2018-10-18T15:25:16.076Z,100787.25
2018-10-18T15:27:44.608Z,100793.84
2018-10-18T15:30:13.488Z,100790.98
2018-10-18T15:32:41.892Z,100795.11
2018-10-18T15:35:11.297Z,100786.56
2018-10-18T15:37:40.349Z,100788.14
2018-10-18T15:40:08.966Z,100789.56
2018-10-18T15:42:38.057Z,100788.45
2018-10-18T15:45:07.270Z,100785.45
2018-10-18T15:47:35.708Z,100790.48
2018-10-18T15:50:04.563Z,100792.38
2018-10-18T15:52:33.207Z,100789.40
2018-10-18T15:55:01.637Z,100782.86
2018-10-18T15:57:30.350Z,100788.81
2018-10-18T15:59:59.779Z,100791.11
2018-10-18T16:02:28.289Z,100788.14
2018-10-18T16:04:57.679Z,100795.06
2018-10-18T16:07:26.302Z,100796.22
2018-10-18T16:09:54.707Z,100791.59
2018-10-18T16:12:23.128Z,100802.87
2018-10-18T16:14:51.597Z,100798.48
2018-10-18T16:17:20.213Z,100802.33
2018-10-18T16:19:48.595Z,100802.88
2018-10-18T16:22:17.042Z,100805.33
2018-10-18T16:24:45.454Z,100802.58
2018-10-18T16:27:13.945Z,100802.87
2018-10-18T16:29:42.568Z,100806.69
2018-10-18T16:32:11.915Z,100808.58
2018-10-18T16:34:40.645Z,100814.80
2018-10-18T16:37:10.049Z,100811.97
2018-10-18T16:39:38.692Z,100817.13
2018-10-18T16:42:07.198Z,100819.28
2018-10-18T16:44:35.574Z,100821.74
2018-10-18T16:47:03.973Z,100823.63
2018-10-18T16:49:32.435Z,100820.90
2018-10-18T16:52:00.901Z,100824.11
2018-10-18T16:54:29.311Z,100827.62
2018-10-18T16:56:57.681Z,100834.13
2018-10-18T16:59:26.130Z,100824.30
2018-10-18T17:01:54.546Z,100824.83
2018-10-18T17:04:23.217Z,100830.65
2018-10-18T17:06:51.572Z,100835.69
2018-10-18T17:09:23.428Z,100830.53
2018-10-18T17:11:53.444Z,100836.49
2018-10-18T17:14:21.937Z,100830.16
2018-10-18T17:16:51.606Z,100834.23
2018-10-18T17:19:20.033Z,100836.33
2018-10-18T17:21:48.419Z,100834.09
2018-10-18T17:24:17.813Z,100834.35
2018-10-18T17:26:46.210Z,100840.81
2018-10-18T17:29:14.714Z,100843.25
2018-10-18T17:31:44.345Z,100844.84
2018-10-18T17:34:12.957Z,100841.86
2018-10-18T17:36:41.359Z,100847.59
2018-10-18T17:39:14.534Z,100844.31
2018-10-18T17:41:43.118Z,100839.34
2018-10-18T17:44:12.779Z,100851.59
2018-10-18T17:46:41.147Z,100845.50
2018-10-18T17:49:09.786Z,100840.48
2018-10-18T17:51:41.525Z,100842.67
2018-10-18T17:54:12.256Z,100842.36
2018-10-18T17:56:45.033Z,100847.49
2018-10-18T17:59:13.731Z,100847.17
2018-10-18T18:01:42.745Z,100832.81
2018-10-18T18:04:11.350Z,100847.36
2018-10-18T18:06:39.876Z,100848.70
2018-10-18T18:09:08.849Z,100847.95
2018-10-18T18:11:37.923Z,100844.31
2018-10-18T18:14:06.894Z,100843.36
2018-10-18T18:16:36.312Z,100842.20
2018-10-18T18:19:05.035Z,100843.51
2018-10-18T18:21:34.047Z,100841.22
2018-10-18T18:24:02.694Z,100844.98
2018-10-18T18:26:45.074Z,100843.65
2018-10-18T18:29:02.310Z,100841.75
2018-10-18T18:31:31.220Z,100845.81
2018-10-18T18:34:07.578Z,100847.97
2018-10-18T18:36:36.416Z,100846.23
2018-10-18T18:39:07.138Z,100850.89
2018-10-18T18:41:36.034Z,100856.27
2018-10-18T18:44:05.984Z,100858.73
2018-10-18T18:46:34.671Z,100861.72
2018-10-18T18:49:12.806Z,100864.37
2018-10-18T18:51:41.750Z,100860.94
2018-10-18T18:54:11.079Z,100872.81
2018-10-18T18:56:40.102Z,100872.55
2018-10-18T18:59:08.542Z,100866.75
2018-10-18T19:01:37.277Z,100870.87
2018-10-18T19:04:11.194Z,100873.64
2018-10-18T19:06:43.490Z,100876.44
2018-10-18T19:09:17.394Z,100878.63
2018-10-18T19:11:46.197Z,100879.91
2018-10-18T19:14:17.285Z,100884.66
2018-10-18T19:16:46.111Z,100885.19
2018-10-18T19:19:14.926Z,100887.57
2018-10-18T19:21:43.979Z,100888.00
2018-10-18T19:24:15.738Z,100884.14
2018-10-18T19:26:45.365Z,100893.45
2018-10-18T19:29:14.797Z,100890.20
2018-10-18T19:31:45.439Z,100890.11
2018-10-18T19:34:15.213Z,100895.23
2018-10-18T19:39:53.875Z,100902.74
2018-10-18T19:42:23.098Z,100895.32
2018-10-18T19:44:58.121Z,100896.59
2018-10-18T19:47:27.074Z,100894.87
2018-10-18T19:49:55.860Z,100890.21
2018-10-18T19:52:25.280Z,100898.96
2018-10-18T19:54:54.007Z,100899.75
2018-10-18T19:57:22.772Z,100901.98
2018-10-18T19:59:51.670Z,100902.58
2018-10-18T20:02:20.467Z,100892.08
2018-10-18T20:04:49.182Z,100894.84
2018-10-18T20:07:18.003Z,100907.64
2018-10-18T20:09:46.904Z,100914.09
2018-10-18T20:12:15.894Z,100909.36
2018-10-18T20:14:44.883Z,100916.34
2018-10-18T20:17:14.098Z,100915.67
2018-10-18T20:19:42.885Z,100914.13
2018-10-18T20:22:15.660Z,100914.19
2018-10-18T20:24:44.516Z,100917.01
2018-10-18T20:27:14.013Z,100916.66
2018-10-18T20:29:42.927Z,100921.34
2018-10-18T20:32:11.794Z,100923.04
2018-10-18T20:34:40.587Z,100923.78
2018-10-18T20:37:09.824Z,100923.04
2018-10-18T20:39:38.688Z,100920.69
2018-10-18T20:42:07.942Z,100919.63
2018-10-18T20:44:36.787Z,100925.02
2018-10-18T20:47:05.666Z,100904.86
2018-10-18T20:49:34.742Z,100920.74
2018-10-18T20:52:03.554Z,100925.17
2018-10-18T20:54:32.206Z,100921.21
2018-10-18T20:57:01.012Z,100921.73
2018-10-18T20:59:30.025Z,100922.08
2018-10-18T21:01:58.647Z,100922.55
2018-10-18T21:04:27.402Z,100919.22
2018-10-18T21:06:56.420Z,100922.02
2018-10-18T21:09:25.298Z,100917.67
2018-10-18T21:11:53.932Z,100911.99
2018-10-18T21:14:23.290Z,100914.61
2018-10-18T21:16:52.491Z,100921.52
2018-10-18T21:19:21.199Z,100918.96
2018-10-18T21:21:50.141Z,100915.30
2018-10-18T21:24:18.832Z,100908.20
2018-10-18T21:26:47.430Z,100915.53
2018-10-18T21:29:16.240Z,100921.52
2018-10-18T21:31:44.893Z,100908.94
2018-10-18T21:34:15.155Z,100914.05
2018-10-18T21:36:44.188Z,100913.93
2018-10-18T21:39:12.999Z,100918.13
2018-10-18T21:41:41.798Z,100911.70
2018-10-18T21:44:11.398Z,100913.81
2018-10-18T21:46:40.358Z,100909.34
2018-10-18T21:49:22.751Z,100910.45
2018-10-18T21:51:54.894Z,100907.22
2018-10-18T21:54:24.690Z,100911.46
2018-10-18T21:56:53.169Z,100909.52
2018-10-18T21:59:21.642Z,100891.03
2018-10-18T22:01:50.130Z,100911.73
2018-10-18T22:04:18.708Z,100913.14
2018-10-18T22:06:48.256Z,100918.63
2018-10-18T22:09:17.224Z,100910.67
2018-10-18T22:11:45.795Z,100911.78
2018-10-18T22:14:14.893Z,100896.36
2018-10-18T22:16:44.165Z,100907.14
2018-10-18T22:19:19.266Z,100899.94
2018-10-18T22:21:48.005Z,100898.27
2018-10-18T22:24:17.220Z,100897.65
2018-10-18T22:26:46.193Z,100899.70
2018-10-18T22:29:14.745Z,100895.52
2018-10-18T22:31:43.197Z,100894.97
2018-10-18T22:34:11.669Z,100892.67
2018-10-18T22:36:40.327Z,100893.22
2018-10-18T22:39:10.212Z,100884.42
2018-10-18T22:41:38.653Z,100888.97
2018-10-18T22:44:07.814Z,100882.57
2018-10-18T22:46:37.026Z,100889.08
2018-10-18T22:49:05.875Z,100886.16
2018-10-18T22:51:34.950Z,100890.89
2018-10-18T22:54:03.902Z,100882.70
2018-10-18T22:56:32.956Z,100885.19
2018-10-18T22:59:01.970Z,100887.61
2018-10-18T23:01:30.975Z,100888.34
2018-10-18T23:03:59.869Z,100888.90
2018-10-18T23:06:28.721Z,100890.70
2018-10-18T23:08:58.749Z,100888.34
2018-10-18T23:11:27.407Z,100885.19
2018-10-18T23:13:56.217Z,100888.39
2018-10-18T23:16:25.112Z,100888.47
2018-10-18T23:18:54.313Z,100873.66
2018-10-18T23:21:22.944Z,100886.06
2018-10-18T23:23:51.786Z,100883.56
2018-10-18T23:26:20.563Z,100881.27
2018-10-18T23:28:49.235Z,100891.10
2018-10-18T23:31:18.165Z,100887.87
2018-10-18T23:33:46.818Z,100892.62
2018-10-18T23:36:15.728Z,100888.97
2018-10-18T23:38:44.360Z,100891.22
2018-10-18T23:41:13.212Z,100888.60
2018-10-18T23:43:41.831Z,100889.77
2018-10-18T23:46:10.719Z,100884.95
2018-10-18T23:48:39.758Z,100882.53
2018-10-18T23:51:08.565Z,100888.72
2018-10-18T23:53:37.707Z,100877.14
2018-10-18T23:56:06.490Z,100882.55
2018-10-18T23:58:35.283Z,100881.27
